MAPA DE AEROPUERTO

INFORMACIÓN METAR y TAF


Deprecated: The each() function is deprecated. This message will be suppressed on further calls in /home/customer/www/clickair-va.com/public_html/VAM/vam/helpers/get_metar.php on line 20
METAR FOR LERS
ADDS - METARS form results

(0829 UTC 07 July 2022)
Data provider http://aviationweather.gov/metar/data/
 
METAR text: LERS 070800Z VRB03KT 9999 FEW025 25/16 Q1021
Conditions at: LERS (REUS (CIV/MIL) , ES) observed 0800 UTC 07 July 2022
Temperature: 25.0°C (77°F)
Dewpoint: 16.0°C (61°F) [RH = 57%]
Pressure (altimeter): 30.15 inches Hg (1021.0 mb)
Winds: variable direction winds at 3 MPH (3 knots; 1.5 m/s)
Visibility: 6 or more miles (10+ km)
Ceiling: at least 12,000 feet AGL
Clouds: few clouds at 2500 feet AGL
Weather: no significant weather observed at this time

METAR text: LERS 070730Z 26003KT 200V340 9999 FEW025 24/16 Q1021
Conditions at: LERS (REUS (CIV/MIL) , ES) observed 0730 UTC 07 July 2022
Temperature: 24.0°C (75°F)
Dewpoint: 16.0°C (61°F) [RH = 61%]
Pressure (altimeter): 30.15 inches Hg (1021.0 mb)
Winds: from the W (260 degrees) at 3 MPH (3 knots; 1.5 m/s)
Visibility: 6 or more miles (10+ km)
Ceiling: at least 12,000 feet AGL
Clouds: few clouds at 2500 feet AGL
Weather: no significant weather observed at this time

Forecast for: LERS (REUS (CIV/MIL) , ES)
Text: TAF LERS 070800Z 0709/0809 28009KT 9999 FEW025 TX34/0712Z TN20/0805Z
Forecast period: 0900 UTC 07 July 2022 to 0900 UTC 08 July 2022
Forecast type: FROM: standard forecast or significant change
Winds: from the W (280 degrees) at 10 MPH (9 knots; 4.6 m/s)
Visibility: 6 or more miles (10+ km)
Ceiling: at least 12,000 feet AGL
Clouds: few clouds at 2500 feet AGL
Weather: no significant weather forecast for this period
Text: TEMPO 0714/0720 22010KT
Forecast period: 1400 to 2000 UTC 07 July 2022
Forecast type: TEMPORARY: The following changes expected for less than half the time period
Winds: from the SW (220 degrees) at 12 MPH (10 knots; 5.1 m/s)
Visibility: missing
Ceiling: unknown
Clouds: missing
Weather: no significant weather forecast for this period
Text: TEMPO 0722/0809 VRB04KT
Forecast period: 2200 UTC 07 July 2022 to 0900 UTC 08 July 2022
Forecast type: TEMPORARY: The following changes expected for less than half the time period
Winds: variable direction winds at 5 MPH (4 knots; 2.1 m/s)
Visibility: missing
Ceiling: unknown
Clouds: missing
Weather: no significant weather forecast for this period